sensor_id;sensor_type;location;lat;lon;timestamp;temperature;humidity
62464;SHT31;48512;48.552;9.380;2024-03-02T00:00:22;6.54;88.20
62464;SHT31;48512;48.552;9.380;2024-03-02T00:02:50;6.54;88.19
62464;SHT31;48512;48.552;9.380;2024-03-02T00:05:21;6.57;88.22
62464;SHT31;48512;48.552;9.380;2024-03-02T00:07:56;6.57;88.33
62464;SHT31;48512;48.552;9.380;2024-03-02T00:10:25;6.61;88.48
62464;SHT31;48512;48.552;9.380;2024-03-02T00:12:56;6.61;88.55
62464;SHT31;48512;48.552;9.380;2024-03-02T00:15:40;6.63;88.66
62464;SHT31;48512;48.552;9.380;2024-03-02T00:18:14;6.61;88.89
62464;SHT31;48512;48.552;9.380;2024-03-02T00:20:42;6.60;88.67
62464;SHT31;48512;48.552;9.380;2024-03-02T00:23:09;6.61;88.62
62464;SHT31;48512;48.552;9.380;2024-03-02T00:28:11;6.58;88.67
62464;SHT31;48512;48.552;9.380;2024-03-02T00:33:08;6.64;88.76
62464;SHT31;48512;48.552;9.380;2024-03-02T00:35:34;6.63;88.92
62464;SHT31;48512;48.552;9.380;2024-03-02T00:38:04;6.61;88.98
62464;SHT31;48512;48.552;9.380;2024-03-02T00:40:32;6.57;89.07
62464;SHT31;48512;48.552;9.380;2024-03-02T00:42:59;6.58;89.18
62464;SHT31;48512;48.552;9.380;2024-03-02T00:45:26;6.65;88.86
62464;SHT31;48512;48.552;9.380;2024-03-02T00:47:52;6.65;88.96
62464;SHT31;48512;48.552;9.380;2024-03-02T00:50:19;6.65;89.06
62464;SHT31;48512;48.552;9.380;2024-03-02T00:52:46;6.65;89.08
62464;SHT31;48512;48.552;9.380;2024-03-02T00:55:14;6.70;89.00
62464;SHT31;48512;48.552;9.380;2024-03-02T00:57:40;6.70;88.85
62464;SHT31;48512;48.552;9.380;2024-03-02T01:00:07;6.67;89.03
62464;SHT31;48512;48.552;9.380;2024-03-02T01:02:36;6.63;89.17
62464;SHT31;48512;48.552;9.380;2024-03-02T01:05:02;6.64;89.30
62464;SHT31;48512;48.552;9.380;2024-03-02T01:07:28;6.68;89.22
62464;SHT31;48512;48.552;9.380;2024-03-02T01:09:54;6.71;89.14
62464;SHT31;48512;48.552;9.380;2024-03-02T01:12:20;6.65;89.21
62464;SHT31;48512;48.552;9.380;2024-03-02T01:14:46;6.70;89.10
62464;SHT31;48512;48.552;9.380;2024-03-02T01:17:12;6.72;89.01
62464;SHT31;48512;48.552;9.380;2024-03-02T01:19:41;6.77;88.88
62464;SHT31;48512;48.552;9.380;2024-03-02T01:22:07;6.74;88.98
62464;SHT31;48512;48.552;9.380;2024-03-02T01:24:33;6.74;89.11
62464;SHT31;48512;48.552;9.380;2024-03-02T01:27:00;6.79;89.00
62464;SHT31;48512;48.552;9.380;2024-03-02T01:29:26;6.81;88.89
62464;SHT31;48512;48.552;9.380;2024-03-02T01:31:52;6.79;88.92
62464;SHT31;48512;48.552;9.380;2024-03-02T01:34:19;6.81;88.83
62464;SHT31;48512;48.552;9.380;2024-03-02T01:36:46;6.82;88.92
62464;SHT31;48512;48.552;9.380;2024-03-02T01:39:12;6.77;89.11
62464;SHT31;48512;48.552;9.380;2024-03-02T01:41:38;6.74;89.17
62464;SHT31;48512;48.552;9.380;2024-03-02T01:44:04;6.70;89.33
62464;SHT31;48512;48.552;9.380;2024-03-02T01:46:30;6.68;89.39
62464;SHT31;48512;48.552;9.380;2024-03-02T01:48:56;6.67;89.42
62464;SHT31;48512;48.552;9.380;2024-03-02T01:51:22;6.67;89.43
62464;SHT31;48512;48.552;9.380;2024-03-02T01:53:48;6.65;89.50
62464;SHT31;48512;48.552;9.380;2024-03-02T01:56:14;6.67;89.55
62464;SHT31;48512;48.552;9.380;2024-03-02T01:58:41;6.65;89.44
62464;SHT31;48512;48.552;9.380;2024-03-02T02:01:07;6.65;89.31
62464;SHT31;48512;48.552;9.380;2024-03-02T02:03:33;6.63;89.33
62464;SHT31;48512;48.552;9.380;2024-03-02T02:05:59;6.68;89.10
62464;SHT31;48512;48.552;9.380;2024-03-02T02:08:25;6.71;88.96
62464;SHT31;48512;48.552;9.380;2024-03-02T02:10:51;6.72;88.93
62464;SHT31;48512;48.552;9.380;2024-03-02T02:13:18;6.77;88.76
62464;SHT31;48512;48.552;9.380;2024-03-02T02:15:44;6.78;88.56
62464;SHT31;48512;48.552;9.380;2024-03-02T02:18:10;6.79;88.67
62464;SHT31;48512;48.552;9.380;2024-03-02T02:20:36;6.72;88.76
62464;SHT31;48512;48.552;9.380;2024-03-02T02:23:03;6.70;88.90
62464;SHT31;48512;48.552;9.380;2024-03-02T02:25:31;6.67;88.78
62464;SHT31;48512;48.552;9.380;2024-03-02T02:27:57;6.72;88.51
62464;SHT31;48512;48.552;9.380;2024-03-02T02:30:29;6.82;88.10
62464;SHT31;48512;48.552;9.380;2024-03-02T02:32:56;6.81;88.17
62464;SHT31;48512;48.552;9.380;2024-03-02T02:35:22;6.87;87.88
62464;SHT31;48512;48.552;9.380;2024-03-02T02:37:50;6.85;87.88
62464;SHT31;48512;48.552;9.380;2024-03-02T02:40:17;6.88;87.86
62464;SHT31;48512;48.552;9.380;2024-03-02T02:42:47;6.84;87.89
62464;SHT31;48512;48.552;9.380;2024-03-02T02:45:13;6.79;87.74
62464;SHT31;48512;48.552;9.380;2024-03-02T02:47:44;6.82;87.58
62464;SHT31;48512;48.552;9.380;2024-03-02T02:50:11;6.82;87.22
62464;SHT31;48512;48.552;9.380;2024-03-02T02:52:39;6.77;87.51
62464;SHT31;48512;48.552;9.380;2024-03-02T02:55:07;6.77;87.53
62464;SHT31;48512;48.552;9.380;2024-03-02T02:57:34;6.75;87.61
62464;SHT31;48512;48.552;9.380;2024-03-02T03:00:06;6.65;87.92
62464;SHT31;48512;48.552;9.380;2024-03-02T03:02:39;6.70;87.64
62464;SHT31;48512;48.552;9.380;2024-03-02T03:05:06;6.71;87.42
62464;SHT31;48512;48.552;9.380;2024-03-02T03:07:32;6.72;87.15
62464;SHT31;48512;48.552;9.380;2024-03-02T03:10:00;6.75;86.75
62464;SHT31;48512;48.552;9.380;2024-03-02T03:12:26;6.79;86.43
62464;SHT31;48512;48.552;9.380;2024-03-02T03:14:52;6.75;86.54
62464;SHT31;48512;48.552;9.380;2024-03-02T03:17:18;6.78;86.05
62464;SHT31;48512;48.552;9.380;2024-03-02T03:19:44;6.78;86.17
62464;SHT31;48512;48.552;9.380;2024-03-02T03:22:11;6.72;86.60
62464;SHT31;48512;48.552;9.380;2024-03-02T03:24:37;6.65;86.38
62464;SHT31;48512;48.552;9.380;2024-03-02T03:27:03;6.64;86.74
62464;SHT31;48512;48.552;9.380;2024-03-02T03:29:29;6.60;86.70
62464;SHT31;48512;48.552;9.380;2024-03-02T03:31:55;6.57;86.91
62464;SHT31;48512;48.552;9.380;2024-03-02T03:34:21;6.54;87.38
62464;SHT31;48512;48.552;9.380;2024-03-02T03:36:47;6.48;87.18
62464;SHT31;48512;48.552;9.380;2024-03-02T03:39:13;6.47;87.03
62464;SHT31;48512;48.552;9.380;2024-03-02T03:41:40;6.44;87.35
62464;SHT31;48512;48.552;9.380;2024-03-02T03:44:06;6.45;86.87
62464;SHT31;48512;48.552;9.380;2024-03-02T03:46:32;6.50;86.20
62464;SHT31;48512;48.552;9.380;2024-03-02T03:48:59;6.43;86.86
62464;SHT31;48512;48.552;9.380;2024-03-02T03:51:25;6.40;87.03
62464;SHT31;48512;48.552;9.380;2024-03-02T03:53:51;6.41;87.08
62464;SHT31;48512;48.552;9.380;2024-03-02T03:56:17;6.37;87.22
62464;SHT31;48512;48.552;9.380;2024-03-02T03:58:43;6.36;87.42
62464;SHT31;48512;48.552;9.380;2024-03-02T04:01:09;6.34;87.71
62464;SHT31;48512;48.552;9.380;2024-03-02T04:03:35;6.32;87.85
62464;SHT31;48512;48.552;9.380;2024-03-02T04:06:01;6.26;88.01
62464;SHT31;48512;48.552;9.380;2024-03-02T04:08:28;6.24;88.11
62464;SHT31;48512;48.552;9.380;2024-03-02T04:10:54;6.22;88.06
62464;SHT31;48512;48.552;9.380;2024-03-02T04:13:20;6.19;88.09
62464;SHT31;48512;48.552;9.380;2024-03-02T04:15:46;6.14;87.91
62464;SHT31;48512;48.552;9.380;2024-03-02T04:18:13;6.14;87.87
62464;SHT31;48512;48.552;9.380;2024-03-02T04:20:39;6.12;87.85
62464;SHT31;48512;48.552;9.380;2024-03-02T04:23:05;6.06;87.99
62464;SHT31;48512;48.552;9.380;2024-03-02T04:25:31;6.03;88.17
62464;SHT31;48512;48.552;9.380;2024-03-02T04:27:57;6.03;88.27
62464;SHT31;48512;48.552;9.380;2024-03-02T04:30:24;6.01;88.47
62464;SHT31;48512;48.552;9.380;2024-03-02T04:32:51;5.99;88.66
62464;SHT31;48512;48.552;9.380;2024-03-02T04:35:17;5.96;88.81
62464;SHT31;48512;48.552;9.380;2024-03-02T04:37:43;5.92;88.91
62464;SHT31;48512;48.552;9.380;2024-03-02T04:40:10;5.89;88.94
62464;SHT31;48512;48.552;9.380;2024-03-02T04:42:36;5.88;89.07
62464;SHT31;48512;48.552;9.380;2024-03-02T04:45:02;5.86;89.18
62464;SHT31;48512;48.552;9.380;2024-03-02T04:47:28;5.86;89.23
62464;SHT31;48512;48.552;9.380;2024-03-02T04:49:55;5.85;89.23
62464;SHT31;48512;48.552;9.380;2024-03-02T04:52:21;5.86;89.33
62464;SHT31;48512;48.552;9.380;2024-03-02T04:54:47;5.85;89.28
62464;SHT31;48512;48.552;9.380;2024-03-02T04:57:31;5.85;89.20
62464;SHT31;48512;48.552;9.380;2024-03-02T04:59:57;5.86;89.06
62464;SHT31;48512;48.552;9.380;2024-03-02T05:02:24;5.86;88.83
62464;SHT31;48512;48.552;9.380;2024-03-02T05:04:50;5.86;88.71
62464;SHT31;48512;48.552;9.380;2024-03-02T05:07:16;5.86;88.31
62464;SHT31;48512;48.552;9.380;2024-03-02T05:09:42;5.86;88.31
62464;SHT31;48512;48.552;9.380;2024-03-02T05:12:08;5.86;88.31
62464;SHT31;48512;48.552;9.380;2024-03-02T05:14:53;5.91;88.09
62464;SHT31;48512;48.552;9.380;2024-03-02T05:17:19;5.89;88.05
62464;SHT31;48512;48.552;9.380;2024-03-02T05:19:45;5.88;88.12
62464;SHT31;48512;48.552;9.380;2024-03-02T05:22:11;5.84;88.20
62464;SHT31;48512;48.552;9.380;2024-03-02T05:24:37;5.84;88.31
62464;SHT31;48512;48.552;9.380;2024-03-02T05:27:03;5.81;88.37
62464;SHT31;48512;48.552;9.380;2024-03-02T05:29:29;5.79;88.43
62464;SHT31;48512;48.552;9.380;2024-03-02T05:31:55;5.82;88.36
62464;SHT31;48512;48.552;9.380;2024-03-02T05:34:21;5.78;88.33
62464;SHT31;48512;48.552;9.380;2024-03-02T05:36:47;5.78;88.28
62464;SHT31;48512;48.552;9.380;2024-03-02T05:39:13;5.78;88.17
62464;SHT31;48512;48.552;9.380;2024-03-02T05:41:40;5.75;88.06
62464;SHT31;48512;48.552;9.380;2024-03-02T05:44:06;5.78;88.18
62464;SHT31;48512;48.552;9.380;2024-03-02T05:46:32;5.76;88.27
62464;SHT31;48512;48.552;9.380;2024-03-02T05:48:59;5.71;88.32
62464;SHT31;48512;48.552;9.380;2024-03-02T05:51:25;5.71;87.90
62464;SHT31;48512;48.552;9.380;2024-03-02T05:53:51;5.72;88.34
62464;SHT31;48512;48.552;9.380;2024-03-02T05:56:17;5.72;88.53
62464;SHT31;48512;48.552;9.380;2024-03-02T05:58:44;5.71;88.54
62464;SHT31;48512;48.552;9.380;2024-03-02T06:01:28;5.68;88.67
62464;SHT31;48512;48.552;9.380;2024-03-02T06:03:56;5.69;88.58
62464;SHT31;48512;48.552;9.380;2024-03-02T06:06:22;5.65;88.28
62464;SHT31;48512;48.552;9.380;2024-03-02T06:08:49;5.68;88.07
62464;SHT31;48512;48.552;9.380;2024-03-02T06:11:15;5.64;87.74
62464;SHT31;48512;48.552;9.380;2024-03-02T06:13:41;5.61;87.43
62464;SHT31;48512;48.552;9.380;2024-03-02T06:16:07;5.65;87.14
62464;SHT31;48512;48.552;9.380;2024-03-02T06:18:34;5.61;86.89
62464;SHT31;48512;48.552;9.380;2024-03-02T06:21:00;5.61;86.60
62464;SHT31;48512;48.552;9.380;2024-03-02T06:23:29;5.65;86.04
62464;SHT31;48512;48.552;9.380;2024-03-02T06:25:55;5.68;85.64
62464;SHT31;48512;48.552;9.380;2024-03-02T06:28:22;5.71;85.59
62464;SHT31;48512;48.552;9.380;2024-03-02T06:30:48;5.71;85.54
62464;SHT31;48512;48.552;9.380;2024-03-02T06:33:14;5.69;85.53
62464;SHT31;48512;48.552;9.380;2024-03-02T06:35:40;5.71;85.53
62464;SHT31;48512;48.552;9.380;2024-03-02T06:38:06;5.75;85.18
62464;SHT31;48512;48.552;9.380;2024-03-02T06:40:33;5.78;84.79
62464;SHT31;48512;48.552;9.380;2024-03-02T06:42:59;5.79;84.79
62464;SHT31;48512;48.552;9.380;2024-03-02T06:45:26;5.79;84.79
62464;SHT31;48512;48.552;9.380;2024-03-02T06:47:52;5.82;85.07
62464;SHT31;48512;48.552;9.380;2024-03-02T06:50:18;5.76;85.22
62464;SHT31;48512;48.552;9.380;2024-03-02T06:52:44;5.81;84.73
62464;SHT31;48512;48.552;9.380;2024-03-02T06:55:10;5.81;84.61
62464;SHT31;48512;48.552;9.380;2024-03-02T06:57:36;5.89;84.05
62464;SHT31;48512;48.552;9.380;2024-03-02T07:00:03;5.89;83.86
62464;SHT31;48512;48.552;9.380;2024-03-02T07:02:31;5.93;84.21
62464;SHT31;48512;48.552;9.380;2024-03-02T07:04:57;5.95;84.24
62464;SHT31;48512;48.552;9.380;2024-03-02T07:07:23;5.96;84.62
62464;SHT31;48512;48.552;9.380;2024-03-02T07:09:49;6.01;84.73
62464;SHT31;48512;48.552;9.380;2024-03-02T07:12:15;6.03;84.88
62464;SHT31;48512;48.552;9.380;2024-03-02T07:14:41;6.03;85.24
62464;SHT31;48512;48.552;9.380;2024-03-02T07:17:22;6.07;85.24
62464;SHT31;48512;48.552;9.380;2024-03-02T07:19:48;6.12;84.95
62464;SHT31;48512;48.552;9.380;2024-03-02T07:22:15;6.19;84.09
62464;SHT31;48512;48.552;9.380;2024-03-02T07:24:44;6.30;83.83
62464;SHT31;48512;48.552;9.380;2024-03-02T07:27:12;6.40;83.11
62464;SHT31;48512;48.552;9.380;2024-03-02T07:29:39;6.51;82.66
62464;SHT31;48512;48.552;9.380;2024-03-02T07:32:07;6.61;82.25
62464;SHT31;48512;48.552;9.380;2024-03-02T07:34:33;6.70;82.16
62464;SHT31;48512;48.552;9.380;2024-03-02T07:36:59;6.75;82.11
62464;SHT31;48512;48.552;9.380;2024-03-02T07:39:26;6.82;81.82
62464;SHT31;48512;48.552;9.380;2024-03-02T07:41:52;6.88;81.57
62464;SHT31;48512;48.552;9.380;2024-03-02T07:44:19;6.96;80.54
62464;SHT31;48512;48.552;9.380;2024-03-02T07:46:46;6.99;81.35
62464;SHT31;48512;48.552;9.380;2024-03-02T07:49:13;7.06;80.73
62464;SHT31;48512;48.552;9.380;2024-03-02T07:51:40;7.13;81.79
62464;SHT31;48512;48.552;9.380;2024-03-02T07:54:06;7.19;80.76
62464;SHT31;48512;48.552;9.380;2024-03-02T07:56:32;7.24;79.96
62464;SHT31;48512;48.552;9.380;2024-03-02T07:58:58;7.36;79.37
62464;SHT31;48512;48.552;9.380;2024-03-02T08:01:28;7.48;77.55
62464;SHT31;48512;48.552;9.380;2024-03-02T08:03:57;7.63;76.71
62464;SHT31;48512;48.552;9.380;2024-03-02T08:06:24;7.77;76.21
62464;SHT31;48512;48.552;9.380;2024-03-02T08:08:54;7.86;76.43
62464;SHT31;48512;48.552;9.380;2024-03-02T08:11:21;7.94;77.58
62464;SHT31;48512;48.552;9.380;2024-03-02T08:13:47;7.95;77.40
62464;SHT31;48512;48.552;9.380;2024-03-02T08:16:17;7.94;77.85
62464;SHT31;48512;48.552;9.380;2024-03-02T08:18:49;7.92;77.91
62464;SHT31;48512;48.552;9.380;2024-03-02T08:21:16;7.89;78.24
62464;SHT31;48512;48.552;9.380;2024-03-02T08:23:43;7.89;77.66
62464;SHT31;48512;48.552;9.380;2024-03-02T08:26:10;7.92;77.11
62464;SHT31;48512;48.552;9.380;2024-03-02T08:28:36;7.98;76.74
62464;SHT31;48512;48.552;9.380;2024-03-02T08:31:03;7.99;77.10
62464;SHT31;48512;48.552;9.380;2024-03-02T08:33:29;8.05;77.39
62464;SHT31;48512;48.552;9.380;2024-03-02T08:35:56;8.06;78.34
62464;SHT31;48512;48.552;9.380;2024-03-02T08:38:22;8.15;78.72
62464;SHT31;48512;48.552;9.380;2024-03-02T08:40:49;8.17;79.02
62464;SHT31;48512;48.552;9.380;2024-03-02T08:43:16;8.26;78.75
62464;SHT31;48512;48.552;9.380;2024-03-02T08:45:42;8.33;78.90
62464;SHT31;48512;48.552;9.380;2024-03-02T08:48:08;8.46;78.71
62464;SHT31;48512;48.552;9.380;2024-03-02T08:50:35;8.64;78.50
62464;SHT31;48512;48.552;9.380;2024-03-02T08:53:03;8.85;79.32
62464;SHT31;48512;48.552;9.380;2024-03-02T08:55:29;8.95;76.43
62464;SHT31;48512;48.552;9.380;2024-03-02T08:57:55;9.11;76.00
62464;SHT31;48512;48.552;9.380;2024-03-02T09:00:22;9.29;75.27
62464;SHT31;48512;48.552;9.380;2024-03-02T09:02:49;9.50;75.42
62464;SHT31;48512;48.552;9.380;2024-03-02T09:05:15;9.66;74.38
62464;SHT31;48512;48.552;9.380;2024-03-02T09:07:41;9.83;73.72
62464;SHT31;48512;48.552;9.380;2024-03-02T09:10:08;9.95;71.26
62464;SHT31;48512;48.552;9.380;2024-03-02T09:12:35;10.18;71.11
62464;SHT31;48512;48.552;9.380;2024-03-02T09:15:02;10.38;69.97
62464;SHT31;48512;48.552;9.380;2024-03-02T09:17:29;10.55;69.98
62464;SHT31;48512;48.552;9.380;2024-03-02T09:19:55;10.62;69.63
62464;SHT31;48512;48.552;9.380;2024-03-02T09:22:22;10.76;67.14
62464;SHT31;48512;48.552;9.380;2024-03-02T09:24:49;10.76;67.15
62464;SHT31;48512;48.552;9.380;2024-03-02T09:27:15;10.96;66.93
62464;SHT31;48512;48.552;9.380;2024-03-02T09:29:41;11.19;66.61
62464;SHT31;48512;48.552;9.380;2024-03-02T09:32:08;11.36;66.24
62464;SHT31;48512;48.552;9.380;2024-03-02T09:34:37;11.52;66.29
62464;SHT31;48512;48.552;9.380;2024-03-02T09:37:04;11.67;66.49
62464;SHT31;48512;48.552;9.380;2024-03-02T09:39:30;11.87;66.81
62464;SHT31;48512;48.552;9.380;2024-03-02T09:41:57;12.04;66.47
62464;SHT31;48512;48.552;9.380;2024-03-02T09:44:25;12.31;66.21
62464;SHT31;48512;48.552;9.380;2024-03-02T09:46:52;12.61;65.75
62464;SHT31;48512;48.552;9.380;2024-03-02T09:49:18;12.88;64.91
62464;SHT31;48512;48.552;9.380;2024-03-02T09:51:47;13.03;64.73
62464;SHT31;48512;48.552;9.380;2024-03-02T09:54:13;13.17;63.30
62464;SHT31;48512;48.552;9.380;2024-03-02T09:56:41;13.24;62.86
62464;SHT31;48512;48.552;9.380;2024-03-02T09:59:07;13.45;64.33
62464;SHT31;48512;48.552;9.380;2024-03-02T10:01:33;13.76;64.21
62464;SHT31;48512;48.552;9.380;2024-03-02T10:04:00;13.95;62.92
62464;SHT31;48512;48.552;9.380;2024-03-02T10:06:27;14.20;62.79
62464;SHT31;48512;48.552;9.380;2024-03-02T10:08:54;14.47;62.85
62464;SHT31;48512;48.552;9.380;2024-03-02T10:11:34;14.74;62.26
62464;SHT31;48512;48.552;9.380;2024-03-02T10:14:12;14.92;61.10
62464;SHT31;48512;48.552;9.380;2024-03-02T10:16:40;15.15;61.74
62464;SHT31;48512;48.552;9.380;2024-03-02T10:21:50;15.43;59.22
62464;SHT31;48512;48.552;9.380;2024-03-02T10:24:18;15.55;58.72
62464;SHT31;48512;48.552;9.380;2024-03-02T10:26:44;15.58;58.27
62464;SHT31;48512;48.552;9.380;2024-03-02T10:29:11;15.71;56.86
62464;SHT31;48512;48.552;9.380;2024-03-02T10:31:38;15.77;56.18
62464;SHT31;48512;48.552;9.380;2024-03-02T10:34:05;15.87;56.47
62464;SHT31;48512;48.552;9.380;2024-03-02T10:36:35;16.13;55.43
62464;SHT31;48512;48.552;9.380;2024-03-02T10:39:05;16.52;56.22
62464;SHT31;48512;48.552;9.380;2024-03-02T10:41:34;16.59;54.89
62464;SHT31;48512;48.552;9.380;2024-03-02T10:44:04;16.73;55.85
62464;SHT31;48512;48.552;9.380;2024-03-02T10:46:33;16.97;52.80
62464;SHT31;48512;48.552;9.380;2024-03-02T10:49:00;17.21;53.91
62464;SHT31;48512;48.552;9.380;2024-03-02T10:51:27;17.29;52.36
62464;SHT31;48512;48.552;9.380;2024-03-02T10:53:55;17.57;52.02
62464;SHT31;48512;48.552;9.380;2024-03-02T10:56:31;17.90;51.39
62464;SHT31;48512;48.552;9.380;2024-03-02T10:59:36;18.32;52.15
62464;SHT31;48512;48.552;9.380;2024-03-02T11:02:05;18.60;49.10
62464;SHT31;48512;48.552;9.380;2024-03-02T11:04:34;18.79;49.15
62464;SHT31;48512;48.552;9.380;2024-03-02T11:07:04;18.70;47.09
62464;SHT31;48512;48.552;9.380;2024-03-02T11:09:34;18.72;46.42
62464;SHT31;48512;48.552;9.380;2024-03-02T11:12:12;18.66;46.00
62464;SHT31;48512;48.552;9.380;2024-03-02T11:14:42;19.15;46.24
62464;SHT31;48512;48.552;9.380;2024-03-02T11:17:15;19.31;45.01
62464;SHT31;48512;48.552;9.380;2024-03-02T11:19:44;19.20;45.35
62464;SHT31;48512;48.552;9.380;2024-03-02T11:22:12;19.30;45.34
62464;SHT31;48512;48.552;9.380;2024-03-02T11:24:47;19.48;45.19
62464;SHT31;48512;48.552;9.380;2024-03-02T11:27:14;19.52;45.81
62464;SHT31;48512;48.552;9.380;2024-03-02T11:34:42;19.44;44.37
62464;SHT31;48512;48.552;9.380;2024-03-02T11:37:13;19.48;44.70
62464;SHT31;48512;48.552;9.380;2024-03-02T11:39:40;19.31;43.11
62464;SHT31;48512;48.552;9.380;2024-03-02T11:42:07;19.73;43.81
62464;SHT31;48512;48.552;9.380;2024-03-02T11:44:35;19.93;42.57
62464;SHT31;48512;48.552;9.380;2024-03-02T11:47:05;20.05;42.00
62464;SHT31;48512;48.552;9.380;2024-03-02T11:52:02;20.64;41.60
62464;SHT31;48512;48.552;9.380;2024-03-02T11:54:32;20.96;42.35
62464;SHT31;48512;48.552;9.380;2024-03-02T11:57:01;21.05;40.35
62464;SHT31;48512;48.552;9.380;2024-03-02T11:59:29;21.10;39.92
62464;SHT31;48512;48.552;9.380;2024-03-02T12:01:56;21.09;39.62
62464;SHT31;48512;48.552;9.380;2024-03-02T12:04:23;21.07;41.46
62464;SHT31;48512;48.552;9.380;2024-03-02T12:06:59;20.91;40.98
62464;SHT31;48512;48.552;9.380;2024-03-02T12:09:28;21.07;41.91
62464;SHT31;48512;48.552;9.380;2024-03-02T12:12:07;20.63;43.15
62464;SHT31;48512;48.552;9.380;2024-03-02T12:14:36;20.01;43.60
62464;SHT31;48512;48.552;9.380;2024-03-02T12:17:03;20.58;43.28
62464;SHT31;48512;48.552;9.380;2024-03-02T12:19:30;20.61;42.92
62464;SHT31;48512;48.552;9.380;2024-03-02T12:21:57;21.09;41.85
62464;SHT31;48512;48.552;9.380;2024-03-02T12:24:24;20.89;41.56
62464;SHT31;48512;48.552;9.380;2024-03-02T12:26:50;21.54;41.80
62464;SHT31;48512;48.552;9.380;2024-03-02T12:29:19;21.16;40.74
62464;SHT31;48512;48.552;9.380;2024-03-02T12:31:48;21.89;41.89
62464;SHT31;48512;48.552;9.380;2024-03-02T12:34:15;21.84;41.30
62464;SHT31;48512;48.552;9.380;2024-03-02T12:36:41;22.01;41.12
62464;SHT31;48512;48.552;9.380;2024-03-02T12:39:11;22.10;41.69
62464;SHT31;48512;48.552;9.380;2024-03-02T12:41:37;21.92;40.53
62464;SHT31;48512;48.552;9.380;2024-03-02T12:44:06;22.04;40.34
62464;SHT31;48512;48.552;9.380;2024-03-02T12:46:32;22.50;40.82
62464;SHT31;48512;48.552;9.380;2024-03-02T12:49:07;22.95;40.64
62464;SHT31;48512;48.552;9.380;2024-03-02T12:51:33;23.23;40.19
62464;SHT31;48512;48.552;9.380;2024-03-02T12:53:59;23.62;41.40
62464;SHT31;48512;48.552;9.380;2024-03-02T12:56:26;23.33;38.98
62464;SHT31;48512;48.552;9.380;2024-03-02T12:58:55;23.48;38.82
62464;SHT31;48512;48.552;9.380;2024-03-02T13:01:21;23.52;38.59
62464;SHT31;48512;48.552;9.380;2024-03-02T13:03:49;23.32;38.26
62464;SHT31;48512;48.552;9.380;2024-03-02T13:06:17;23.16;37.96
62464;SHT31;48512;48.552;9.380;2024-03-02T13:08:45;23.80;38.73
62464;SHT31;48512;48.552;9.380;2024-03-02T13:11:11;24.20;36.98
62464;SHT31;48512;48.552;9.380;2024-03-02T13:13:42;24.18;37.06
62464;SHT31;48512;48.552;9.380;2024-03-02T13:16:12;24.26;37.29
62464;SHT31;48512;48.552;9.380;2024-03-02T13:18:39;24.15;36.48
62464;SHT31;48512;48.552;9.380;2024-03-02T13:21:09;24.34;36.76
62464;SHT31;48512;48.552;9.380;2024-03-02T13:23:36;24.61;36.71
62464;SHT31;48512;48.552;9.380;2024-03-02T13:26:02;24.79;36.89
62464;SHT31;48512;48.552;9.380;2024-03-02T13:28:29;25.33;37.91
62464;SHT31;48512;48.552;9.380;2024-03-02T13:30:55;25.13;34.69
62464;SHT31;48512;48.552;9.380;2024-03-02T13:33:21;25.02;35.06
62464;SHT31;48512;48.552;9.380;2024-03-02T13:35:50;24.87;34.77
62464;SHT31;48512;48.552;9.380;2024-03-02T13:38:20;25.07;37.35
62464;SHT31;48512;48.552;9.380;2024-03-02T13:40:48;25.30;33.89
62464;SHT31;48512;48.552;9.380;2024-03-02T13:43:17;25.00;36.27
62464;SHT31;48512;48.552;9.380;2024-03-02T13:45:44;25.17;34.57
62464;SHT31;48512;48.552;9.380;2024-03-02T13:48:10;25.21;34.76
62464;SHT31;48512;48.552;9.380;2024-03-02T13:50:36;25.26;33.35
62464;SHT31;48512;48.552;9.380;2024-03-02T13:53:03;25.34;35.17
62464;SHT31;48512;48.552;9.380;2024-03-02T13:55:29;25.39;34.90
62464;SHT31;48512;48.552;9.380;2024-03-02T13:57:55;25.58;35.00
62464;SHT31;48512;48.552;9.380;2024-03-02T14:00:21;25.69;34.27
62464;SHT31;48512;48.552;9.380;2024-03-02T14:02:47;25.54;35.56
62464;SHT31;48512;48.552;9.380;2024-03-02T14:05:15;25.13;34.09
62464;SHT31;48512;48.552;9.380;2024-03-02T14:07:42;24.99;35.24
62464;SHT31;48512;48.552;9.380;2024-03-02T14:10:08;25.24;35.24
62464;SHT31;48512;48.552;9.380;2024-03-02T14:12:34;25.31;34.99
62464;SHT31;48512;48.552;9.380;2024-03-02T14:15:00;25.47;34.92
62464;SHT31;48512;48.552;9.380;2024-03-02T14:17:30;25.28;34.93
62464;SHT31;48512;48.552;9.380;2024-03-02T14:19:58;25.17;34.17
62464;SHT31;48512;48.552;9.380;2024-03-02T14:22:25;24.76;33.63
62464;SHT31;48512;48.552;9.380;2024-03-02T14:24:51;24.44;32.68
62464;SHT31;48512;48.552;9.380;2024-03-02T14:27:17;24.24;33.69
62464;SHT31;48512;48.552;9.380;2024-03-02T14:29:44;24.41;35.52
62464;SHT31;48512;48.552;9.380;2024-03-02T14:32:11;24.49;36.00
62464;SHT31;48512;48.552;9.380;2024-03-02T14:34:37;24.25;35.36
62464;SHT31;48512;48.552;9.380;2024-03-02T14:37:04;24.03;34.61
62464;SHT31;48512;48.552;9.380;2024-03-02T14:39:30;23.66;34.11
62464;SHT31;48512;48.552;9.380;2024-03-02T14:42:00;23.70;34.88
62464;SHT31;48512;48.552;9.380;2024-03-02T14:44:27;23.93;36.40
62464;SHT31;48512;48.552;9.380;2024-03-02T14:46:53;23.81;33.77
62464;SHT31;48512;48.552;9.380;2024-03-02T14:49:19;23.45;33.93
62464;SHT31;48512;48.552;9.380;2024-03-02T14:51:45;23.05;35.07
62464;SHT31;48512;48.552;9.380;2024-03-02T14:54:11;23.43;36.09
62464;SHT31;48512;48.552;9.380;2024-03-02T14:56:38;22.88;34.17
62464;SHT31;48512;48.552;9.380;2024-03-02T14:59:04;23.12;35.68
62464;SHT31;48512;48.552;9.380;2024-03-02T15:01:30;23.37;36.47
62464;SHT31;48512;48.552;9.380;2024-03-02T15:03:56;23.56;36.42
62464;SHT31;48512;48.552;9.380;2024-03-02T15:06:22;23.22;36.07
62464;SHT31;48512;48.552;9.380;2024-03-02T15:08:49;22.92;37.36
62464;SHT31;48512;48.552;9.380;2024-03-02T15:11:15;22.39;37.98
62464;SHT31;48512;48.552;9.380;2024-03-02T15:13:41;21.81;39.98
62464;SHT31;48512;48.552;9.380;2024-03-02T15:16:08;21.68;40.47
62464;SHT31;48512;48.552;9.380;2024-03-02T15:18:34;21.14;41.12
62464;SHT31;48512;48.552;9.380;2024-03-02T15:21:00;20.81;42.87
62464;SHT31;48512;48.552;9.380;2024-03-02T15:23:26;20.63;43.56
62464;SHT31;48512;48.552;9.380;2024-03-02T15:25:56;19.86;44.28
62464;SHT31;48512;48.552;9.380;2024-03-02T15:28:22;19.94;46.31
62464;SHT31;48512;48.552;9.380;2024-03-02T15:30:48;19.82;43.98
62464;SHT31;48512;48.552;9.380;2024-03-02T15:33:14;19.83;44.25
62464;SHT31;48512;48.552;9.380;2024-03-02T15:35:40;19.55;46.62
62464;SHT31;48512;48.552;9.380;2024-03-02T15:38:06;19.80;45.88
62464;SHT31;48512;48.552;9.380;2024-03-02T15:40:34;20.06;45.85
62464;SHT31;48512;48.552;9.380;2024-03-02T15:43:00;20.26;45.90
62464;SHT31;48512;48.552;9.380;2024-03-02T15:45:26;20.36;45.78
62464;SHT31;48512;48.552;9.380;2024-03-02T15:47:59;20.44;45.38
62464;SHT31;48512;48.552;9.380;2024-03-02T15:50:27;20.54;45.64
62464;SHT31;48512;48.552;9.380;2024-03-02T15:52:53;20.57;45.75
62464;SHT31;48512;48.552;9.380;2024-03-02T15:55:21;20.43;46.03